Time;durP1;ratioP1;P1;durP2;ratioP2;P2;SDS_P1;SDS_P2;PMS_P1;PMS_P2;Temp;Humidity;BMP_temperature;BMP_pressure;BME280_temperature;BME280_humidity;BME280_pressure;Samples;Min_cycle;Max_cycle;Signal;HPM_P1;HPM_P2
2022/01/28 00:02:33;;;;;;;5.90;3.63;;;3.80;99.90;;;;;;5043526;28;20462;-69
2022/01/28 00:04:55;;;;;;;4.47;2.97;;;3.80;99.90;;;;;;5031658;28;20479;-68
2022/01/28 00:07:21;;;;;;;5.33;3.70;;;3.80;99.90;;;;;;5032736;28;20455;-68
2022/01/28 00:09:47;;;;;;;3.83;2.87;;;3.80;99.90;;;;;;5034463;28;20241;-68
2022/01/28 00:12:14;;;;;;;5.53;3.57;;;3.80;99.90;;;;;;5034683;28;20216;-68
2022/01/28 00:17:52;;;;;;;3.77;3.13;;;3.80;99.90;;;;;;5051564;28;20554;-69
2022/01/28 00:37:01;;;;;;;6.77;3.53;;;3.70;99.90;;;;;;5054220;28;20441;-69
2022/01/28 00:39:25;;;;;;;6.57;3.30;;;3.80;99.90;;;;;;5072063;28;20461;-69
2022/01/28 00:41:51;;;;;;;3.67;2.90;;;3.80;99.90;;;;;;5065444;28;20504;-68
2022/01/28 00:44:17;;;;;;;4.23;3.30;;;3.80;99.90;;;;;;5040051;28;20471;-68
2022/01/28 00:46:42;;;;;;;5.77;4.00;;;3.80;99.90;;;;;;5050857;28;20477;-68
2022/01/28 00:49:08;;;;;;;3.93;3.30;;;3.70;99.90;;;;;;5052360;28;20231;-69
2022/01/28 00:51:34;;;;;;;4.67;2.80;;;3.70;99.90;;;;;;5050803;28;20220;-70
2022/01/28 00:53:59;;;;;;;4.80;2.73;;;3.80;99.90;;;;;;5047476;28;20228;-69
2022/01/28 00:56:25;;;;;;;5.93;4.13;;;3.80;99.90;;;;;;5051662;28;20731;-68
2022/01/28 00:58:51;;;;;;;4.17;3.17;;;3.80;99.90;;;;;;5052388;28;20224;-68
2022/01/28 01:01:17;;;;;;;4.60;3.17;;;3.80;99.90;;;;;;5028481;28;20678;-69
2022/01/28 01:03:42;;;;;;;4.00;3.13;;;3.70;99.90;;;;;;5040332;28;20227;-69
2022/01/28 01:06:08;;;;;;;7.13;4.13;;;3.80;99.90;;;;;;5022623;28;20258;-68
2022/01/28 01:08:34;;;;;;;3.23;2.93;;;3.70;99.90;;;;;;5043775;28;20249;-69
2022/01/28 01:11:00;;;;;;;4.70;3.40;;;3.70;99.90;;;;;;5051905;28;20246;-68
2022/01/28 01:13:25;;;;;;;4.10;3.50;;;3.70;99.90;;;;;;5051441;28;20232;-68
2022/01/28 01:15:56;;;;;;;7.80;3.57;;;3.70;99.90;;;;;;5032870;28;20219;-68
2022/01/28 01:18:33;;;;;;;7.80;3.30;;;3.70;99.90;;;;;;5049527;28;20314;-68
2022/01/28 01:21:07;;;;;;;7.17;3.50;;;3.70;99.90;;;;;;5052020;28;20543;-69
2022/01/28 01:23:36;;;;;;;3.90;2.60;;;3.70;99.90;;;;;;5052494;28;20461;-67
2022/01/28 01:28:33;;;;;;;5.70;3.57;;;3.70;99.90;;;;;;5049630;28;20462;-69
2022/01/28 01:31:00;;;;;;;5.63;3.57;;;3.70;99.90;;;;;;5050358;28;20449;-69
2022/01/28 01:33:28;;;;;;;5.40;2.90;;;3.70;99.90;;;;;;5049671;28;20453;-68
2022/01/28 01:35:54;;;;;;;5.87;3.90;;;3.70;99.90;;;;;;5049156;28;20546;-67
2022/01/28 01:38:25;;;;;;;5.37;3.80;;;3.80;99.90;;;;;;5049601;28;20538;-69
2022/01/28 01:40:54;;;;;;;4.33;3.40;;;3.80;99.90;;;;;;5045908;28;20212;-69
2022/01/28 01:53:55;;;;;;;7.00;4.27;;;3.90;99.90;;;;;;5050949;28;20535;-68
2022/01/28 01:56:21;;;;;;;5.07;3.77;;;3.90;99.90;;;;;;5032810;28;20466;-68
2022/01/28 01:58:47;;;;;;;5.53;3.67;;;3.90;99.90;;;;;;5048272;28;20459;-68
2022/01/28 02:01:13;;;;;;;8.20;4.60;;;3.90;99.90;;;;;;5082165;28;20466;-69
2022/01/28 02:03:39;;;;;;;5.57;3.83;;;3.90;99.90;;;;;;5050611;28;20474;-68
2022/01/28 02:06:05;;;;;;;6.60;4.07;;;3.90;99.90;;;;;;5049478;28;20500;-69
2022/01/28 02:08:33;;;;;;;4.90;3.17;;;3.90;99.90;;;;;;5046199;28;20845;-69
2022/01/28 02:10:59;;;;;;;6.83;4.27;;;3.90;99.90;;;;;;5046648;28;20464;-69
2022/01/28 02:13:26;;;;;;;4.47;3.27;;;3.90;99.90;;;;;;5024038;28;20474;-69
2022/01/28 02:15:56;;;;;;;5.13;3.20;;;3.90;99.90;;;;;;5050451;28;20503;-68
2022/01/28 02:18:23;;;;;;;4.10;3.47;;;3.80;99.90;;;;;;5082212;28;20466;-69
2022/01/28 02:20:51;;;;;;;4.60;3.40;;;3.80;99.90;;;;;;5065361;28;20466;-68
2022/01/28 02:23:20;;;;;;;6.53;3.83;;;3.90;99.90;;;;;;5050930;28;21059;-69
2022/01/28 02:25:46;;;;;;;9.40;3.77;;;3.90;99.90;;;;;;5065319;28;20533;-69
2022/01/28 02:28:15;;;;;;;3.30;3.00;;;3.80;99.90;;;;;;5057872;28;20525;-69
2022/01/28 02:30:41;;;;;;;4.60;3.33;;;3.90;99.90;;;;;;5048552;28;20488;-69
2022/01/28 02:33:17;;;;;;;3.60;2.80;;;3.90;99.90;;;;;;5049349;28;20485;-69
2022/01/28 02:35:44;;;;;;;3.93;2.97;;;3.80;99.90;;;;;;5049952;28;20504;-68
2022/01/28 02:38:12;;;;;;;4.37;2.80;;;3.80;99.90;;;;;;5042158;28;20862;-69
2022/01/28 02:40:41;;;;;;;2.90;2.60;;;3.80;99.90;;;;;;5039666;28;20525;-68
2022/01/28 02:43:28;;;;;;;;;;;;;;;;;;;;;
2022/01/28 02:45:43;;;;;;;4.40;2.90;;;3.80;99.90;;;;;;5048293;28;20446;-69
2022/01/28 02:48:16;;;;;;;2.40;2.20;;;3.70;99.90;;;;;;5050336;28;20451;-69
2022/01/28 02:51:00;;;;;;;4.43;2.20;;;3.70;99.90;;;;;;5037599;28;20463;-69
2022/01/28 02:53:38;;;;;;;4.47;2.83;;;3.70;99.90;;;;;;5047151;28;20533;-67
2022/01/28 02:56:13;;;;;;;3.77;1.83;;;3.70;99.90;;;;;;5048499;28;20515;-68
2022/01/28 02:58:39;;;;;;;2.40;2.03;;;3.70;99.90;;;;;;5028124;28;20490;-69
2022/01/28 03:01:06;;;;;;;2.70;1.97;;;3.70;99.90;;;;;;5040918;28;20465;-69
2022/01/28 03:03:32;;;;;;;3.37;2.90;;;3.70;99.90;;;;;;5031620;28;20458;-68
2022/01/28 03:05:58;;;;;;;2.43;2.10;;;3.70;99.90;;;;;;5048300;28;20457;-68
2022/01/28 03:08:27;;;;;;;4.50;2.23;;;3.70;99.90;;;;;;5046968;28;20788;-69
2022/01/28 03:14:21;;;;;;;3.83;1.50;;;3.70;99.90;;;;;;5046806;28;20621;-67
2022/01/28 03:16:20;;;;;;;1.80;1.70;;;3.70;99.90;;;;;;5044894;28;20561;-69
2022/01/28 03:18:53;;;;;;;1.50;1.27;;;3.70;99.90;;;;;;5046032;28;20469;-68
2022/01/28 03:23:48;;;;;;;3.43;2.17;;;3.80;99.90;;;;;;5046201;28;20470;-68
2022/01/28 03:26:15;;;;;;;2.60;1.70;;;3.80;99.90;;;;;;5059812;28;20449;-68
2022/01/28 03:28:41;;;;;;;2.30;1.80;;;3.80;99.90;;;;;;5068452;28;20441;-69
2022/01/28 03:31:07;;;;;;;4.53;2.80;;;3.80;99.90;;;;;;5059889;28;20956;-70
2022/01/28 03:33:33;;;;;;;3.53;1.93;;;3.70;99.90;;;;;;5055459;28;20322;-68
2022/01/28 03:36:01;;;;;;;1.70;1.43;;;3.70;99.90;;;;;;5046428;28;20592;-68
2022/01/28 03:38:27;;;;;;;2.03;1.90;;;3.70;99.90;;;;;;5036223;28;20232;-68
2022/01/28 03:40:56;;;;;;;2.90;1.87;;;3.80;99.90;;;;;;5051927;28;20477;-68
2022/01/28 03:43:22;;;;;;;2.80;1.70;;;3.80;99.90;;;;;;5057951;28;20239;-68
2022/01/28 03:45:48;;;;;;;3.07;1.83;;;3.80;99.90;;;;;;5050546;28;20535;-68
2022/01/28 03:48:13;;;;;;;2.50;1.80;;;3.70;99.90;;;;;;5051220;28;20492;-69
2022/01/28 03:50:39;;;;;;;1.93;1.77;;;3.70;99.90;;;;;;5055319;28;20622;-69
2022/01/28 03:53:07;;;;;;;5.70;2.47;;;3.70;99.90;;;;;;5050359;28;20247;-68
2022/01/28 03:55:32;;;;;;;3.27;1.67;;;3.70;99.90;;;;;;5050800;28;20459;-68
2022/01/28 03:57:58;;;;;;;4.17;1.60;;;3.70;99.90;;;;;;5051545;28;20458;-68
2022/01/28 04:00:28;;;;;;;3.13;2.30;;;3.70;99.90;;;;;;5042357;28;20603;-68
2022/01/28 04:03:11;;;;;;;2.10;1.87;;;3.70;99.90;;;;;;5050331;28;20480;-67
2022/01/28 04:13:32;;;;;;;2.03;1.83;;;3.70;99.90;;;;;;5042898;28;20474;-68
2022/01/28 04:18:42;;;;;;;3.77;1.50;;;3.70;99.90;;;;;;5049642;28;20246;-68
2022/01/28 04:21:08;;;;;;;4.30;2.20;;;3.70;99.90;;;;;;5049632;28;20442;-69
2022/01/28 04:23:33;;;;;;;3.23;2.33;;;3.80;99.90;;;;;;5030397;28;20231;-69
2022/01/28 04:25:59;;;;;;;3.53;2.17;;;3.80;99.90;;;;;;5050485;28;20458;-69
2022/01/28 04:28:25;;;;;;;2.57;1.87;;;3.70;99.90;;;;;;5050165;28;20235;-69
2022/01/28 04:30:51;;;;;;;3.47;2.07;;;3.70;99.90;;;;;;5051518;28;20224;-68
2022/01/28 04:33:16;;;;;;;3.77;1.70;;;3.70;99.90;;;;;;5037030;28;20219;-69
2022/01/28 04:35:45;;;;;;;4.10;1.83;;;3.70;99.90;;;;;;5049070;28;20306;-68
2022/01/28 04:40:46;;;;;;;2.17;1.97;;;3.70;99.90;;;;;;5046796;28;20542;-68
2022/01/28 04:43:22;;;;;;;2.40;1.80;;;3.70;99.90;;;;;;5033016;28;20228;-68
2022/01/28 04:46:06;;;;;;;2.30;1.70;;;3.70;99.90;;;;;;5052384;28;20475;-68
2022/01/28 04:48:50;;;;;;;6.40;1.93;;;3.70;99.90;;;;;;5050754;28;20458;-69
2022/01/28 05:07:12;;;;;;;2.53;1.83;;;3.70;99.90;;;;;;5014659;28;20455;-69
2022/01/28 05:23:26;;;;;;;3.73;1.80;;;3.70;99.90;;;;;;5048002;28;20563;-68
2022/01/28 05:28:38;;;;;;;2.43;1.60;;;3.70;99.90;;;;;;5054940;28;20465;-69
2022/01/28 05:31:04;;;;;;;3.20;1.90;;;3.70;99.90;;;;;;5049301;28;20991;-68
2022/01/28 05:33:30;;;;;;;2.30;1.80;;;3.70;99.90;;;;;;5047471;28;20461;-67
2022/01/28 05:35:55;;;;;;;1.57;1.47;;;3.70;99.90;;;;;;5044620;28;20265;-68
2022/01/28 05:38:21;;;;;;;1.60;1.50;;;3.70;99.90;;;;;;5047827;28;20648;-68
2022/01/28 05:40:47;;;;;;;7.27;1.97;;;3.70;99.90;;;;;;5049306;28;20234;-68
2022/01/28 05:43:12;;;;;;;3.33;1.80;;;3.70;99.90;;;;;;5045949;28;20231;-68
2022/01/28 05:45:38;;;;;;;3.13;2.00;;;3.80;99.90;;;;;;5050360;28;20259;-68
2022/01/28 05:48:04;;;;;;;3.40;2.07;;;3.80;99.90;;;;;;5047459;28;20281;-69
2022/01/28 05:50:30;;;;;;;3.53;2.00;;;3.80;99.90;;;;;;5045594;28;20262;-68
2022/01/28 05:52:55;;;;;;;3.47;1.73;;;3.80;99.90;;;;;;5047496;28;20719;-69
2022/01/28 05:55:21;;;;;;;7.43;2.10;;;3.70;99.90;;;;;;5053061;28;20215;-69
2022/01/28 05:57:47;;;;;;;1.47;1.30;;;3.70;99.90;;;;;;5058132;28;20616;-69
2022/01/28 06:00:14;;;;;;;4.23;2.10;;;3.70;99.90;;;;;;5058244;28;20219;-69
2022/01/28 06:02:44;;;;;;;5.90;1.67;;;3.70;99.90;;;;;;5060935;28;20285;-68
2022/01/28 06:05:10;;;;;;;1.50;1.37;;;3.70;99.90;;;;;;5066060;28;20832;-68
2022/01/28 06:07:41;;;;;;;5.93;1.73;;;3.70;99.90;;;;;;5062530;28;20455;-70
2022/01/28 06:10:08;;;;;;;3.77;1.87;;;3.70;99.90;;;;;;5051042;28;20494;-68
2022/01/28 06:12:52;;;;;;;2.20;1.90;;;3.70;99.90;;;;;;5054304;28;20533;-69
2022/01/28 06:15:19;;;;;;;2.80;1.60;;;3.70;99.90;;;;;;5045981;28;20458;-68
2022/01/28 06:17:45;;;;;;;3.00;1.87;;;3.70;99.90;;;;;;5063159;28;20446;-68
2022/01/28 06:20:12;;;;;;;2.90;1.47;;;3.70;99.90;;;;;;5048550;28;20458;-68
2022/01/28 06:22:42;;;;;;;3.90;1.50;;;3.60;99.90;;;;;;5029834;28;20379;-68
2022/01/28 06:25:09;;;;;;;3.40;1.90;;;3.60;99.90;;;;;;5043930;28;20453;-69
2022/01/28 06:27:36;;;;;;;3.60;1.90;;;3.60;99.90;;;;;;5057792;28;20449;-68
2022/01/28 06:30:04;;;;;;;2.47;1.50;;;3.60;99.90;;;;;;5037930;28;20519;-68
2022/01/28 06:32:31;;;;;;;2.20;1.67;;;3.70;99.90;;;;;;5054212;28;20467;-68
2022/01/28 06:35:00;;;;;;;3.27;1.80;;;3.70;99.90;;;;;;5079444;28;20538;-68
2022/01/28 06:37:26;;;;;;;2.07;1.20;;;3.70;99.90;;;;;;5050216;28;20460;-67
2022/01/28 06:39:52;;;;;;;3.20;1.50;;;3.70;99.90;;;;;;5051389;28;20510;-69
2022/01/28 06:42:18;;;;;;;4.20;1.87;;;3.70;99.90;;;;;;5031218;28;20452;-68
2022/01/28 06:44:44;;;;;;;2.57;1.63;;;3.70;99.90;;;;;;5043842;28;20216;-70
2022/01/28 06:47:12;;;;;;;1.40;1.10;;;3.70;99.90;;;;;;5051665;28;20220;-67
2022/01/28 06:49:38;;;;;;;1.00;1.00;;;3.70;99.90;;;;;;5055482;28;20211;-71
2022/01/28 06:52:06;;;;;;;2.57;1.23;;;3.70;99.90;;;;;;5052955;28;20461;-69
2022/01/28 06:54:32;;;;;;;2.10;2.00;;;3.70;99.90;;;;;;5031011;28;20496;-68
2022/01/28 06:56:58;;;;;;;5.37;2.70;;;3.70;99.90;;;;;;5053468;28;20454;-69
2022/01/28 06:59:24;;;;;;;3.13;2.83;;;3.70;99.90;;;;;;5052365;28;20545;-69
2022/01/28 07:01:50;;;;;;;3.40;2.77;;;3.80;99.90;;;;;;5045285;28;20553;-67
2022/01/28 07:04:16;;;;;;;3.40;2.53;;;3.80;99.90;;;;;;5041852;28;20473;-69
2022/01/28 07:06:42;;;;;;;2.43;2.23;;;3.80;99.90;;;;;;5044850;28;20226;-68
2022/01/28 07:09:09;;;;;;;3.23;1.60;;;3.80;99.90;;;;;;5045510;28;20470;-69
2022/01/28 07:11:35;;;;;;;2.17;1.83;;;3.70;99.90;;;;;;5042951;28;20978;-68
2022/01/28 07:14:01;;;;;;;3.80;1.40;;;3.70;99.90;;;;;;5043705;28;20481;-70
2022/01/28 07:16:27;;;;;;;1.30;1.20;;;3.70;99.90;;;;;;5030104;28;20254;-69
2022/01/28 07:18:53;;;;;;;2.10;1.40;;;3.70;99.90;;;;;;5064558;28;20318;-70
2022/01/28 07:21:18;;;;;;;1.47;1.37;;;3.70;99.90;;;;;;5048023;28;20537;-69
2022/01/28 07:23:45;;;;;;;5.57;1.83;;;3.70;99.90;;;;;;5046660;28;20306;-69
2022/01/28 07:26:11;;;;;;;1.53;1.30;;;3.70;99.90;;;;;;5046783;28;20219;-69
2022/01/28 07:28:39;;;;;;;1.70;1.60;;;3.70;99.90;;;;;;5046952;28;20457;-68
2022/01/28 07:31:05;;;;;;;4.07;1.70;;;3.80;99.90;;;;;;5031127;28;20230;-69
2022/01/28 07:33:30;;;;;;;6.00;1.40;;;3.70;99.90;;;;;;5029808;28;20461;-70
2022/01/28 07:35:56;;;;;;;1.67;1.43;;;3.80;99.90;;;;;;5048271;28;20215;-67
2022/01/28 07:38:22;;;;;;;6.90;1.77;;;3.80;99.90;;;;;;5038792;28;20220;-69
2022/01/28 07:40:48;;;;;;;11.20;2.07;;;3.80;99.90;;;;;;5029732;28;20295;-67
2022/01/28 07:43:13;;;;;;;2.77;1.63;;;3.80;99.90;;;;;;5043054;28;20228;-69
2022/01/28 07:45:39;;;;;;;1.90;1.80;;;3.80;99.90;;;;;;5044982;28;20283;-69
2022/01/28 07:48:05;;;;;;;1.37;1.27;;;3.80;99.90;;;;;;5046868;28;20265;-69
2022/01/28 07:50:30;;;;;;;3.03;1.17;;;3.90;99.90;;;;;;5046714;28;20227;-69
2022/01/28 07:52:56;;;;;;;1.43;1.27;;;3.90;99.90;;;;;;5046646;28;20302;-69
2022/01/28 07:55:22;;;;;;;10.13;2.57;;;3.90;99.90;;;;;;5046046;28;20278;-67
2022/01/28 07:57:47;;;;;;;3.07;1.70;;;3.90;99.90;;;;;;5029999;28;20224;-68
2022/01/28 08:00:14;;;;;;;1.70;1.60;;;3.90;99.90;;;;;;5051418;28;20215;-68
2022/01/28 08:02:42;;;;;;;9.23;2.03;;;3.90;99.90;;;;;;5044028;28;20228;-70
2022/01/28 08:05:10;;;;;;;1.50;1.40;;;3.90;99.90;;;;;;5047810;28;20533;-69
2022/01/28 08:07:35;;;;;;;2.10;1.50;;;3.90;99.90;;;;;;5046414;28;20464;-69
2022/01/28 08:10:01;;;;;;;2.80;1.33;;;3.90;99.90;;;;;;5044997;28;20467;-68
2022/01/28 08:12:27;;;;;;;2.93;1.43;;;3.90;99.90;;;;;;5048778;28;20212;-69
2022/01/28 08:14:53;;;;;;;5.57;1.80;;;3.90;99.90;;;;;;5030899;28;20211;-69
2022/01/28 08:17:18;;;;;;;2.07;1.17;;;3.90;99.90;;;;;;5051896;28;20215;-68
2022/01/28 08:19:44;;;;;;;1.13;1.13;;;3.90;99.90;;;;;;5052905;28;20218;-68
2022/01/28 08:22:10;;;;;;;3.00;1.60;;;3.90;99.90;;;;;;5052796;28;20228;-68
2022/01/28 08:24:35;;;;;;;3.10;1.50;;;3.90;99.90;;;;;;5053564;28;20226;-69
2022/01/28 08:27:01;;;;;;;8.07;1.60;;;3.90;99.90;;;;;;5051844;28;20266;-69
2022/01/28 08:29:27;;;;;;;1.63;1.10;;;3.90;99.90;;;;;;5050607;28;20338;-68
2022/01/28 08:31:53;;;;;;;1.93;1.30;;;4.00;99.90;;;;;;5057032;28;20239;-68
2022/01/28 08:34:18;;;;;;;1.60;1.33;;;4.00;99.90;;;;;;5053532;28;20728;-69
2022/01/28 08:36:44;;;;;;;2.10;1.37;;;4.00;99.90;;;;;;5036393;28;20704;-69
2022/01/28 08:39:11;;;;;;;3.43;1.33;;;4.00;99.90;;;;;;5050930;28;20224;-68
2022/01/28 08:41:39;;;;;;;8.10;1.50;;;4.00;99.90;;;;;;5032896;28;20295;-69
2022/01/28 08:44:05;;;;;;;2.40;1.63;;;4.00;99.90;;;;;;5050667;28;20467;-69
2022/01/28 08:46:31;;;;;;;8.60;1.80;;;4.00;99.90;;;;;;5058352;28;20458;-69
2022/01/28 08:48:57;;;;;;;3.60;1.90;;;4.00;99.90;;;;;;5049663;28;20473;-69
2022/01/28 08:51:23;;;;;;;3.23;1.77;;;4.00;99.90;;;;;;5044839;28;20532;-69
2022/01/28 08:53:49;;;;;;;3.50;1.37;;;4.00;99.90;;;;;;5049064;28;20545;-68
2022/01/28 08:56:15;;;;;;;2.57;1.60;;;4.00;99.90;;;;;;5049776;28;20466;-68
2022/01/28 08:58:41;;;;;;;6.03;1.53;;;4.10;99.90;;;;;;5047810;28;20464;-70
2022/01/28 09:01:06;;;;;;;4.70;1.33;;;4.00;99.90;;;;;;5048643;28;20228;-69
2022/01/28 09:03:33;;;;;;;4.57;1.27;;;4.10;99.90;;;;;;5059653;28;20240;-69
2022/01/28 09:05:59;;;;;;;3.43;1.33;;;4.10;99.90;;;;;;5050506;28;20227;-69
2022/01/28 09:08:25;;;;;;;3.30;1.60;;;4.10;99.90;;;;;;5048827;28;20447;-69
2022/01/28 09:10:59;;;;;;;3.50;2.10;;;4.10;99.90;;;;;;5049121;28;20291;-68
2022/01/28 09:13:29;;;;;;;9.97;2.33;;;4.10;99.90;;;;;;5048129;28;20455;-70
2022/01/28 09:15:56;;;;;;;2.83;1.47;;;4.20;99.90;;;;;;5049491;28;21006;-69
2022/01/28 09:18:24;;;;;;;3.83;1.50;;;4.20;99.90;;;;;;5049172;28;20562;-69
2022/01/28 09:20:50;;;;;;;8.53;1.43;;;4.20;99.90;;;;;;5048920;28;20466;-68
2022/01/28 09:23:16;;;;;;;10.03;5.33;;;4.20;99.90;;;;;;5049694;28;20528;-70
2022/01/28 09:25:43;;;;;;;4.97;4.20;;;4.20;99.90;;;;;;5061009;28;20445;-68
2022/01/28 09:28:09;;;;;;;3.60;2.70;;;4.20;99.90;;;;;;5048142;28;20458;-70
2022/01/28 09:30:35;;;;;;;5.17;3.40;;;4.20;99.90;;;;;;5049500;28;20513;-69
2022/01/28 09:33:02;;;;;;;12.67;8.10;;;4.20;99.90;;;;;;5032564;28;20237;-70
2022/01/28 09:35:28;;;;;;;16.63;8.20;;;4.30;99.90;;;;;;5030571;28;20481;-69
2022/01/28 09:37:54;;;;;;;32.37;16.47;;;4.30;99.90;;;;;;5047172;28;20466;-70
2022/01/28 09:40:20;;;;;;;27.77;16.63;;;4.30;99.90;;;;;;5048833;28;20231;-69
2022/01/28 09:42:48;;;;;;;8.10;5.40;;;4.40;99.90;;;;;;5044859;28;20311;-69
2022/01/28 09:45:23;;;;;;;10.90;4.97;;;4.40;99.90;;;;;;5048366;28;20454;-70
2022/01/28 09:47:54;;;;;;;2.40;2.07;;;4.40;99.90;;;;;;5044149;28;20986;-69
2022/01/28 09:50:25;;;;;;;4.10;2.10;;;4.50;99.90;;;;;;5048129;28;20454;-70
2022/01/28 09:52:52;;;;;;;3.03;1.90;;;4.50;99.90;;;;;;5043227;28;20475;-68
2022/01/28 09:55:18;;;;;;;2.37;2.00;;;4.60;99.90;;;;;;5047177;28;20455;-68
2022/01/28 09:57:48;;;;;;;9.47;3.10;;;4.60;99.90;;;;;;5046848;28;20454;-67
2022/01/28 10:00:14;;;;;;;6.47;3.73;;;4.60;99.90;;;;;;5048087;28;20450;-70
2022/01/28 10:02:51;;;;;;;10.37;5.20;;;4.70;99.90;;;;;;5049864;28;20452;-69
2022/01/28 10:05:36;;;;;;;10.20;5.83;;;4.70;99.90;;;;;;5047053;28;20482;-68
2022/01/28 10:08:03;;;;;;;8.97;5.23;;;4.70;99.90;;;;;;5062932;28;20458;-69
2022/01/28 10:10:42;;;;;;;5.17;3.13;;;4.70;99.90;;;;;;5049796;28;20447;-69
2022/01/28 10:13:27;;;;;;;4.60;2.80;;;4.80;99.90;;;;;;5045796;28;20545;-69
2022/01/28 10:15:55;;;;;;;10.87;4.83;;;4.70;99.90;;;;;;5049739;28;20449;-70
2022/01/28 10:18:21;;;;;;;13.40;8.90;;;4.80;99.90;;;;;;5050329;28;20450;-68
2022/01/28 10:20:47;;;;;;;19.47;11.10;;;4.80;99.90;;;;;;5048190;28;20537;-68
2022/01/28 10:23:14;;;;;;;26.20;16.80;;;4.80;99.90;;;;;;5048265;28;20612;-69
2022/01/28 10:25:42;;;;;;;35.40;17.50;;;4.80;99.90;;;;;;5064023;28;20211;-69
2022/01/28 10:28:10;;;;;;;29.00;15.33;;;4.80;99.90;;;;;;5048890;28;20462;-69
2022/01/28 10:30:41;;;;;;;24.63;13.93;;;4.80;99.90;;;;;;5047460;28;20451;-69
2022/01/28 10:33:16;;;;;;;22.07;12.83;;;4.90;99.90;;;;;;5030559;28;20454;-70
2022/01/28 10:36:11;;;;;;;33.23;16.10;;;4.90;99.90;;;;;;5046027;28;20454;-69
2022/01/28 10:38:41;;;;;;;28.77;15.73;;;4.90;99.90;;;;;;5028558;28;20524;-69
2022/01/28 10:41:15;;;;;;;18.93;9.83;;;5.00;99.90;;;;;;5046326;28;20451;-70
2022/01/28 10:43:48;;;;;;;14.03;5.93;;;5.00;99.90;;;;;;5026873;28;20477;-70
2022/01/28 10:46:23;;;;;;;7.13;4.80;;;5.10;99.90;;;;;;5030826;28;20854;-70
2022/01/28 10:48:57;;;;;;;7.27;4.17;;;5.10;99.90;;;;;;5048545;28;20454;-67
2022/01/28 10:51:40;;;;;;;12.97;3.17;;;5.20;99.90;;;;;;5046346;28;20449;-68
2022/01/28 10:54:08;;;;;;;2.13;1.60;;;5.20;99.90;;;;;;5045047;28;20451;-69
2022/01/28 10:56:51;;;;;;;5.47;1.97;;;5.30;99.90;;;;;;5044985;28;20963;-69
2022/01/28 10:59:18;;;;;;;2.60;1.70;;;5.30;99.90;;;;;;5046517;28;20453;-70
2022/01/28 11:01:45;;;;;;;6.73;1.33;;;5.40;99.90;;;;;;5047664;28;20478;-69
2022/01/28 11:04:13;;;;;;;7.30;1.40;;;5.40;99.90;;;;;;5047415;28;20485;-70
2022/01/28 11:06:40;;;;;;;2.70;1.60;;;5.40;99.90;;;;;;5039996;28;20451;-69
2022/01/28 11:09:10;;;;;;;3.70;1.17;;;5.50;99.90;;;;;;5048696;28;20511;-70
2022/01/28 11:11:37;;;;;;;7.83;1.83;;;5.60;99.90;;;;;;5046494;28;20482;-69
2022/01/28 11:14:04;;;;;;;2.83;1.47;;;5.60;99.90;;;;;;5046484;28;20439;-69
2022/01/28 11:16:30;;;;;;;5.13;1.30;;;5.70;99.90;;;;;;5042272;28;20592;-70
2022/01/28 11:18:59;;;;;;;1.53;1.10;;;5.90;99.90;;;;;;5048710;28;20540;-70
2022/01/28 11:21:49;;;;;;;3.53;1.40;;;5.90;99.90;;;;;;5046856;28;20454;-68
2022/01/28 11:24:23;;;;;;;3.83;1.60;;;6.00;99.90;;;;;;5049027;28;20481;-70
2022/01/28 11:26:54;;;;;;;3.20;1.47;;;6.00;99.90;;;;;;5045776;28;20985;-70
2022/01/28 11:29:26;;;;;;;3.43;1.30;;;6.00;99.90;;;;;;5047166;28;20484;-70
2022/01/28 11:32:17;;;;;;;1.20;1.10;;;6.00;99.90;;;;;;5047009;28;20537;-69
2022/01/28 11:34:56;;;;;;;7.10;1.60;;;6.10;99.90;;;;;;5026093;28;20533;-70
2022/01/28 11:37:31;;;;;;;3.83;1.53;;;6.20;99.90;;;;;;5031680;28;20467;-68
2022/01/28 11:40:14;;;;;;;2.13;1.30;;;6.30;99.90;;;;;;5048531;28;20460;-70
2022/01/28 11:42:40;;;;;;;5.90;1.50;;;6.40;99.90;;;;;;5054045;28;20794;-70
2022/01/28 11:45:08;;;;;;;1.50;1.00;;;6.50;99.90;;;;;;5046556;28;20508;-70
2022/01/28 11:47:56;;;;;;;2.73;1.30;;;6.50;99.90;;;;;;5052345;28;20481;-71
2022/01/28 11:50:23;;;;;;;2.20;1.50;;;6.50;99.90;;;;;;5064421;28;20460;-68
2022/01/28 11:52:54;;;;;;;6.87;2.07;;;6.50;99.90;;;;;;5068252;28;20468;-69
2022/01/28 11:55:26;;;;;;;1.33;1.13;;;6.60;99.90;;;;;;5064756;28;21008;-69
2022/01/28 11:58:04;;;;;;;3.33;1.67;;;6.70;99.90;;;;;;5068157;28;20460;-70
2022/01/28 12:00:43;;;;;;;7.70;1.63;;;6.80;99.90;;;;;;5067615;28;20457;-69
2022/01/28 12:03:17;;;;;;;5.40;1.37;;;6.90;99.90;;;;;;5069880;28;20557;-70
2022/01/28 12:05:43;;;;;;;1.73;1.27;;;7.10;99.90;;;;;;5059005;28;20461;-69
2022/01/28 12:08:10;;;;;;;3.43;1.90;;;7.00;99.90;;;;;;5066729;28;20509;-69
2022/01/28 12:10:42;;;;;;;2.23;1.37;;;6.90;99.90;;;;;;5056096;28;20223;-68
2022/01/28 12:13:12;;;;;;;1.43;1.30;;;6.90;99.90;;;;;;5079166;28;20471;-70
2022/01/28 12:18:55;;;;;;;1.80;1.10;;;6.90;99.90;;;;;;5059684;28;20508;-69
2022/01/28 12:21:22;;;;;;;5.10;1.53;;;7.00;99.90;;;;;;5063589;28;20540;-70
2022/01/28 12:23:48;;;;;;;2.50;1.00;;;7.00;99.90;;;;;;5059997;28;20465;-68
2022/01/28 12:26:17;;;;;;;4.87;1.17;;;7.10;99.90;;;;;;5049238;28;20466;-70
2022/01/28 12:28:50;;;;;;;4.87;1.20;;;7.00;99.90;;;;;;5048402;28;20458;-69
2022/01/28 12:31:20;;;;;;;3.17;0.97;;;6.90;99.90;;;;;;5014695;28;20460;-69
2022/01/28 12:33:49;;;;;;;5.57;1.30;;;7.00;99.90;;;;;;5037838;28;20463;-69
2022/01/28 12:36:37;;;;;;;2.23;1.13;;;7.00;99.90;;;;;;5045352;28;20481;-69
2022/01/28 12:39:10;;;;;;;1.60;1.17;;;7.10;99.90;;;;;;5063353;28;20465;-70
2022/01/28 12:41:49;;;;;;;2.30;1.10;;;7.10;99.90;;;;;;5067927;28;20445;-69
2022/01/28 12:44:15;;;;;;;8.83;1.10;;;7.00;99.90;;;;;;5057964;28;20558;-70
2022/01/28 12:46:47;;;;;;;7.00;1.80;;;7.10;99.90;;;;;;5030540;28;20462;-70
2022/01/28 12:49:13;;;;;;;2.73;1.20;;;7.10;99.90;;;;;;5047632;28;20462;-68
2022/01/28 12:51:39;;;;;;;6.07;1.60;;;7.10;99.90;;;;;;5030028;28;20470;-70
2022/01/28 12:54:06;;;;;;;1.27;1.17;;;7.10;99.90;;;;;;5054634;28;20237;-69
2022/01/28 12:56:43;;;;;;;4.60;1.47;;;7.20;99.90;;;;;;5030515;28;20462;-70
2022/01/28 12:59:10;;;;;;;3.97;1.40;;;7.20;99.90;;;;;;5029163;28;20554;-70
2022/01/28 13:01:36;;;;;;;1.97;1.07;;;7.20;99.90;;;;;;5046619;28;20458;-69
2022/01/28 13:04:13;;;;;;;4.33;1.53;;;7.20;99.90;;;;;;5038598;28;20988;-69
2022/01/28 13:08:24;;;;;;;3.73;1.50;;;7.20;99.90;;;;;;5038412;28;20220;-69
2022/01/28 13:09:33;;;;;;;2.47;0.93;;;7.20;99.90;;;;;;5042519;28;20478;-70
2022/01/28 13:12:02;;;;;;;3.00;1.03;;;7.20;99.90;;;;;;5041053;28;20522;-69
2022/01/28 13:14:32;;;;;;;5.00;1.23;;;7.20;99.90;;;;;;5046350;28;20500;-68
2022/01/28 13:16:59;;;;;;;2.60;1.60;;;7.20;99.90;;;;;;5044505;28;20455;-69
2022/01/28 13:19:27;;;;;;;8.93;1.93;;;7.10;99.90;;;;;;5050403;28;20450;-70
2022/01/28 13:21:54;;;;;;;5.07;1.67;;;7.10;99.90;;;;;;5045165;28;20469;-70
2022/01/28 13:24:25;;;;;;;2.37;1.87;;;7.00;99.90;;;;;;5051996;28;20560;-70
2022/01/28 13:27:01;;;;;;;2.00;1.80;;;7.00;99.90;;;;;;5050768;28;20465;-68
2022/01/28 13:29:48;;;;;;;7.43;2.13;;;7.00;99.90;;;;;;5045279;28;20474;-69
2022/01/28 13:32:16;;;;;;;1.87;1.77;;;7.10;99.90;;;;;;5051405;28;20545;-69
2022/01/28 13:34:48;;;;;;;2.60;1.70;;;7.10;99.90;;;;;;5047648;28;20451;-68
2022/01/28 13:37:37;;;;;;;2.33;1.90;;;7.10;99.90;;;;;;5041807;28;20542;-70
2022/01/28 13:40:06;;;;;;;5.23;2.60;;;7.10;99.90;;;;;;5031422;28;20531;-70
2022/01/28 13:42:32;;;;;;;7.17;2.70;;;7.10;99.90;;;;;;5048134;28;20459;-70
2022/01/28 13:45:04;;;;;;;3.00;2.50;;;7.10;99.90;;;;;;5049397;28;20474;-69
2022/01/28 13:47:49;;;;;;;1.77;1.67;;;7.10;99.90;;;;;;5044442;28;20462;-70
2022/01/28 13:50:23;;;;;;;5.93;2.33;;;7.10;99.90;;;;;;5028940;28;20869;-69
2022/01/28 13:52:53;;;;;;;9.90;3.43;;;7.10;99.90;;;;;;5046226;28;20543;-70
2022/01/28 13:55:37;;;;;;;3.93;3.07;;;7.10;99.90;;;;;;5028870;28;20470;-69
2022/01/28 13:58:06;;;;;;;9.80;3.60;;;7.20;99.90;;;;;;5052647;28;20482;-70
2022/01/28 14:00:43;;;;;;;3.23;2.77;;;7.20;99.90;;;;;;5045739;28;20473;-70
2022/01/28 14:03:26;;;;;;;4.67;2.60;;;7.10;99.90;;;;;;5042421;28;20489;-70
2022/01/28 14:05:51;;;;;;;7.40;2.30;;;7.10;99.90;;;;;;5042952;28;20478;-70
2022/01/28 14:08:39;;;;;;;3.33;1.80;;;7.10;99.90;;;;;;5053784;28;20504;-69
2022/01/28 14:11:32;;;;;;;6.23;3.67;;;7.20;99.90;;;;;;5048171;28;20215;-70
2022/01/28 14:14:15;;;;;;;6.97;3.93;;;7.20;99.90;;;;;;5047057;28;20454;-70
2022/01/28 14:16:48;;;;;;;5.13;2.93;;;7.20;99.90;;;;;;5045210;28;20457;-68
2022/01/28 14:19:15;;;;;;;6.03;3.30;;;7.20;99.90;;;;;;5045020;28;20454;-68
2022/01/28 14:21:42;;;;;;;5.67;3.10;;;7.20;99.90;;;;;;5029195;28;20458;-68
2022/01/28 14:24:11;;;;;;;4.50;4.10;;;7.20;99.90;;;;;;5055464;28;20505;-70
2022/01/28 14:26:43;;;;;;;7.57;4.90;;;7.20;99.90;;;;;;5054991;28;20447;-70
2022/01/28 14:29:24;;;;;;;;;;;;;;;;;;;;;
2022/01/28 14:31:47;;;;;;;8.10;6.20;;;7.20;99.90;;;;;;5050398;28;20461;-70
2022/01/28 14:34:13;;;;;;;8.27;5.33;;;7.20;99.90;;;;;;5039927;28;20498;-70
2022/01/28 14:36:40;;;;;;;11.30;5.87;;;7.30;99.90;;;;;;5079417;28;20354;-70